Zeta Global (ZETA) Institutional Ownership

$17.55
+0.13 (+0.75%)
(As of 02:45 PM ET)

Institutional Ownership Changes (13F Filings) for Zeta Global (NASDAQ:ZETA)

Current
Institutional Ownership
Percentage
75.82%
Number of
Institutional Buyers
(last 12 months)
80
Total
Institutional Inflows
(last 12 months)
$234.07M
Number of
Institutional Sellers
(last 12 months)
37
Total
Institutional Outflows
(last 12 months)
$33.98M
Get ZETA Insider Trade Alerts

Want to know when executives and insiders are buying or selling Zeta Global stock? Sign up for InsiderTrades.com's daily newsletter to get the latest insider transactions delivered to your inbox daily.

Skip Chart & View Institutional Buying and Selling Data

ZETA Institutional Buying and Selling by Quarter

Zeta Global Major Shareholders & Ownership History

Reporting DateMajor Shareholder NameShares HeldMarket Value% of PortfolioQuarterly Change in SharesOwnership in CompanyDetails
5/17/2024 Comerica Bank126,719$1.39M0.0%-1.1%0.058%
5/16/2024 California State Teachers Retirement System155,112$1.70M0.0%-3.6%0.071%
5/16/2024 Kennedy Capital Management LLC82,806$905K0.0%+3.7%0.038%
5/16/2024 Bwcp LP1,699,833$18.58M4.8%+32.6%0.778%
5/16/2024 Bayesian Capital Management LP31,502$344K0.0%+78.1%0.014%
5/16/2024 Silvercrest Asset Management Group LLC1,141,611$12.48M0.1%+11.1%0.523%
5/15/2024 Price T Rowe Associates Inc. MD91,195$997K0.0%+5.9%0.042%
5/15/2024 Lazard Asset Management LLC376,348$4.11M0.0%N/A0.172%
5/13/2024 Clearbridge Investments LLC3,030,639$33.13M0.0%+2.6%1.388%
5/11/2024 Summit Creek Advisors LLC1,539,615$16.83M2.1%+0.7%0.705%
5/10/2024 Connors Investor Services Inc.245,420$2.68M0.3%-6.5%0.112%
5/10/2024 Acadian Asset Management LLC9,864$107K0.0%-33.1%0.005%
5/10/2024 Vanguard Group Inc.16,717,605$182.72M0.0%+2.6%7.654%
5/9/2024 Lord Abbett & CO. LLC1,088,347$11.90M0.0%+43.9%0.498%
5/9/2024 First Eagle Investment Management LLC947,397$10.36M0.0%+26.7%0.434%
5/9/2024 State Board of Administration of Florida Retirement System13,510$146K0.0%-65.6%0.006%
5/8/2024 Entropy Technologies LP14,040$153K0.0%N/A0.006%
5/8/2024 ProShare Advisors LLC25,249$276K0.0%+9.7%0.012%
5/8/2024 Russell Investments Group Ltd.554,597$6.06M0.0%+99.3%0.254%
5/7/2024 Sei Investments Co.137,620$1.50M0.0%-4.2%0.063%
5/7/2024Susquehanna Fundamental Investments LLC87,384$955K0.0%N/A0.040%
5/7/2024 Swiss National Bank309,600$3.38M0.0%+1.3%0.142%
5/7/2024 SG Americas Securities LLC12,513$137K0.0%-45.6%0.006%
5/6/2024 George Kaiser Family Foundation256,838$2.81M0.5%+8.2%0.118%
5/3/2024 Essex Investment Management Co. LLC227,417$2.49M0.5%+0.5%0.104%
5/1/2024 Mirae Asset Global Investments Co. Ltd.46,142$481K0.0%-25.1%0.021%
4/30/2024 Allspring Global Investments Holdings LLC38,732$423K0.0%+9.3%0.018%
4/29/2024Commonwealth Equity Services LLC150,067$1.64M0.0%-1.8%0.069%
4/29/2024 Principal Financial Group Inc.18,894$207K0.0%+18.9%0.009%
4/26/2024 SlateStone Wealth LLC12,386$135K0.0%N/A0.006%
4/26/2024 Mesirow Financial Investment Management Inc.31,871$348K0.0%-23.1%0.015%
4/19/2024 Mesirow Financial Investment Management Inc.31,871$348K1.7%-23.1%0.015%
4/18/2024 Allspring Global Investments Holdings LLC38,732$423K0.0%+9.3%0.018%
4/17/2024 Investment Research & Advisory Group Inc.11,980$131K0.1%-45.9%0.005%
4/16/2024 Hodges Capital Management Inc.447,740$4.89M0.3%-0.5%0.205%
4/16/2024 Register Financial Advisors LLC28,000$306K0.2%+66.7%0.013%
4/15/2024 Counterpoint Mutual Funds LLC12,404$136K0.0%+9.4%0.006%
4/9/2024 Halpern Financial Inc.5,300$56K0.0%+18.6%0.002%
4/5/2024 Insight Wealth Strategies LLC156,622$1.71M0.3%+49.8%0.072%
4/4/2024 Moody National Bank Trust Division382,840$4.18M0.3%+11.7%0.175%
Warren Buffett's "mystery stock" (Ad)

WARNING: Read This Before the Next Fed Meeting Investors are looking to the Fed with high hopes for interest rate relief. Unfortunately, many have no idea there's another major story unfolding right now, one that could be worth $40 trillion.

This Wall Street millionaire just stepped forward with all the details, and how it could make some
3/11/2024 Vanguard Group Inc.16,286,528$143.65M0.0%+2.3%7.457%
2/15/2024 Ophir Asset Management Pty Ltd2,231,476$19.68M3.9%N/A1.041%
2/15/2024 Granahan Investment Management LLC8,112,729$71.55M2.4%+15.3%3.786%
2/15/2024 Comerica Bank128,096$1.13M0.0%+2.4%0.060%
2/15/2024 Praesidium Investment Management Company LLC6,181,328$54.52M6.7%+1,549.5%2.885%
2/14/2024 Scalar Gauge Management LLC726,865$6.41M6.1%N/A0.339%
2/14/2024 Regal Investment Advisors LLC55,366$488K0.0%+5.2%0.026%
2/14/2024 CastleKnight Management LP88,400$780K0.0%+94.7%0.041%
2/13/2024 Capital World Investors2,671,246$23.56M0.0%N/A1.247%
2/12/2024 Axiom Investors LLC DE399,675$3.53M0.0%+134.5%0.187%
2/12/2024 Millrace Asset Group Inc.442,265$3.90M3.9%+22.4%0.206%
2/12/2024 1492 Capital Management LLC491,950$4.34M2.5%+0.9%0.230%
2/12/2024 George Kaiser Family Foundation237,383$2.09M0.4%+891.8%0.111%
2/9/2024 Trexquant Investment LP156,980$1.39M0.0%+113.5%0.073%
2/9/2024 D.A. Davidson & CO.106,584$940K0.0%-5.4%0.050%
2/8/2024 Independent Advisor Alliance23,646$209K0.0%-4.4%0.011%
2/8/2024 Marathon Capital Management239,000$2.11M0.5%-4.8%0.112%
2/8/2024 Great Lakes Advisors LLC278,955$2.46M0.0%-47.5%0.130%
2/8/2024 First Eagle Investment Management LLC747,897$6.60M0.0%+12.7%0.349%
2/8/2024 Essex Investment Management Co. LLC226,184$2.00M0.4%N/A0.106%
2/8/2024 Massachusetts Financial Services Co. MA2,116,138$18.66M0.0%N/A0.988%
2/7/2024 Summit Creek Advisors LLC1,529,628$13.49M1.8%+4.1%0.714%
2/7/2024 Jump Financial LLC147,300$1.30M0.0%+117.3%0.069%
2/7/2024 Counterpoint Mutual Funds LLC11,339$100K0.0%N/A0.005%
2/6/2024 Charles Schwab Investment Management Inc.1,249,359$11.02M0.0%+3.0%0.583%
2/6/2024 Swiss National Bank305,600$2.70M0.0%-3.8%0.143%
2/5/2024 Victory Capital Management Inc.20,167$178K0.0%+25.7%0.009%
2/5/2024 Russell Investments Group Ltd.278,303$2.46M0.0%+2.2%0.130%
2/1/2024 New York State Common Retirement Fund286,002$2.52M0.0%+28.9%0.133%
2/1/2024 Handelsbanken Fonder AB29,000$256K0.0%-7.1%0.014%
1/30/2024 Zurcher Kantonalbank Zurich Cantonalbank28,847$254K0.0%-13.4%0.013%
1/30/2024 Mackenzie Financial Corp147,928$1.31M0.0%+19.6%0.069%
1/29/2024 Ingalls & Snyder LLC104,088$918K0.0%-2.8%0.049%
1/26/2024 Optas LLC10,000$88K0.0%N/A0.005%
1/25/2024 Allspring Global Investments Holdings LLC35,437$313K0.0%-6.3%0.017%
1/24/2024 Arizona State Retirement System43,351$382K0.0%+5.4%0.020%
1/18/2024 Blue Trust Inc.10,960$92K0.0%+22.8%0.005%
1/16/2024 Legato Capital Management LLC105,318$929K0.1%N/A0.049%
1/12/2024 SG Americas Securities LLC22,986$203K0.0%N/A0.011%
1/12/2024 Insight Wealth Strategies LLC104,561$922K0.1%N/A0.049%
1/12/2024 Register Financial Advisors LLC16,800$148K0.1%-54.0%0.008%
1/11/2024 Moody National Bank Trust Division342,887$3.02M0.2%+25.3%0.160%
1/11/2024 Mesirow Financial Investment Management Inc.41,460$352K1.4%N/A0.019%
12/18/2023 Vanguard Group Inc.15,915,616$132.90M0.0%+6.6%7.427%
12/6/2023 Citigroup Inc.38,878$325K0.0%-38.9%0.018%
11/22/2023 Connors Investor Services Inc.196,634$1.64M0.2%N/A0.092%
11/16/2023 Ironwood Investment Management LLC67,592$564K0.3%-3.3%0.032%
11/15/2023 Worth Venture Partners LLC18,421$154K0.1%-16.3%0.009%
11/15/2023 Kennedy Capital Management LLC78,466$655K0.0%+2.4%0.037%
11/15/2023 Advantage Alpha Capital Partners LP606,226$5.06M1.1%+45.3%0.283%
Warren Buffett's "mystery stock" (Ad)

WARNING: Read This Before the Next Fed Meeting Investors are looking to the Fed with high hopes for interest rate relief. Unfortunately, many have no idea there's another major story unfolding right now, one that could be worth $40 trillion.

This Wall Street millionaire just stepped forward with all the details, and how it could make some
11/14/2023 Bwcp LP924,461$7.72M2.8%N/A0.431%
11/14/2023 Corton Capital Inc.10,964$92K0.0%-14.8%0.005%
11/14/2023 Trexquant Investment LP73,534$614K0.0%+46.0%0.034%
11/14/2023 Numerai GP LLC596,187$4.98M1.7%-27.4%0.278%
11/13/2023 Millrace Asset Group Inc.361,304$3.02M3.7%+23.1%0.169%
11/13/2023 Connor Clark & Lunn Investment Management Ltd.72,138$602K0.0%+111.7%0.034%
11/13/2023 Fuller & Thaler Asset Management Inc.1,179,421$9.85M0.1%+8.3%0.550%
11/13/2023 Clearbridge Investments LLC2,952,677$24.66M0.0%-0.3%1.378%
11/13/2023 Regal Investment Advisors LLC52,618$439K0.0%N/A0.025%
11/13/2023 Acadian Asset Management LLC3,107$25K0.0%-95.6%0.001%
(Data available from 1/1/2016 forward)

ZETA Institutional Ownership - Frequently Asked Questions

Who are the largest shareholders of ZETA shares?

During the previous two years, 135 institutional investors and hedge funds held shares of Zeta Global. The most heavily invested institutionals were Vanguard Group Inc. ($182.72M), Granahan Investment Management LLC ($71.55M), Praesidium Investment Management Company LLC ($54.52M), Clearbridge Investments LLC ($33.13M), Capital World Investors ($23.56M), Kohlberg Kravis Roberts & Co. L.P. ($21.74M), and Intrinsic Edge Capital Management LLC ($20.15M).Learn more on ZETA's institutional investors.

What percentage of Zeta Global stock is owned by institutional investors?

75.82% of Zeta Global stock is owned by institutional investors. Learn more on ZETA's institutional investor holdings.

Which institutional investors have been buying Zeta Global stock?

Of the 122 institutional investors that purchased Zeta Global stock in the last 24 months, the following investors and hedge funds have bought the highest volume of shares: Praesidium Investment Management Company LLC ($5.81M), Capital World Investors ($2.67M), Ophir Asset Management Pty Ltd ($2.61M), Massachusetts Financial Services Co. MA ($2.12M), Nuveen Asset Management LLC ($2.05M), Granahan Investment Management LLC ($1.88M), and Vanguard Group Inc. ($1.79M).

How much institutional buying is happening at Zeta Global?

Institutional investors have bought a total of 37,216,072 shares in the last 24 months. This purchase volume represents approximately $319.79M in transactions.

Which Zeta Global major shareholders have been selling company stock?

Of the 47 institutional investors that sold Zeta Global stock in the last 24 months, the following investors and hedge funds have sold the highest volume of shares: Lord Abbett & CO. LLC ($2.31M), Kohlberg Kravis Roberts & Co. L.P. ($2.09M), Granahan Investment Management LLC ($793.14K), Great Lakes Advisors LLC ($672.96K), Russell Investments Group Ltd. ($381.52K), Numerai GP LLC ($225.28K), and Jump Financial LLC ($136.41K).

How much institutional selling is happening at Zeta Global?

Institutional investors have sold a total of 7,621,034 shares in the last 24 months. This volume of shares sold represents approximately $61.81M in transactions.


This page (NASDAQ:ZETA) was last updated on 5/20/2024 by MarketBeat.com Staff

From Our Partners